sensor_id;sensor_type;location;lat;lon;timestamp;P1;durP1;ratioP1;P2;durP2;ratioP2
72924;SDS011;61070;50.794;7.054;2023-01-08T00:01:02;4.50;;;1.33;;
72924;SDS011;61070;50.794;7.054;2023-01-08T00:03:31;1.90;;;1.20;;
72924;SDS011;61070;50.794;7.054;2023-01-08T00:05:59;2.60;;;1.33;;
72924;SDS011;61070;50.794;7.054;2023-01-08T00:08:26;2.07;;;1.20;;
72924;SDS011;61070;50.794;7.054;2023-01-08T00:10:54;2.10;;;1.38;;
72924;SDS011;61070;50.794;7.054;2023-01-08T00:13:20;2.17;;;0.93;;
72924;SDS011;61070;50.794;7.054;2023-01-08T00:15:45;1.30;;;1.08;;
72924;SDS011;61070;50.794;7.054;2023-01-08T00:18:10;3.47;;;1.23;;
72924;SDS011;61070;50.794;7.054;2023-01-08T00:20:39;2.45;;;0.80;;
72924;SDS011;61070;50.794;7.054;2023-01-08T00:23:05;2.92;;;1.40;;
72924;SDS011;61070;50.794;7.054;2023-01-08T00:25:31;2.75;;;1.15;;
72924;SDS011;61070;50.794;7.054;2023-01-08T00:27:56;2.00;;;1.67;;
72924;SDS011;61070;50.794;7.054;2023-01-08T00:30:21;3.10;;;1.73;;
72924;SDS011;61070;50.794;7.054;2023-01-08T00:32:46;1.92;;;1.73;;
72924;SDS011;61070;50.794;7.054;2023-01-08T00:35:12;1.98;;;1.25;;
72924;SDS011;61070;50.794;7.054;2023-01-08T00:37:37;2.83;;;1.52;;
72924;SDS011;61070;50.794;7.054;2023-01-08T00:40:02;3.42;;;1.27;;
72924;SDS011;61070;50.794;7.054;2023-01-08T00:42:28;3.28;;;1.48;;
72924;SDS011;61070;50.794;7.054;2023-01-08T00:44:53;3.78;;;1.20;;
72924;SDS011;61070;50.794;7.054;2023-01-08T00:47:19;3.03;;;1.83;;
72924;SDS011;61070;50.794;7.054;2023-01-08T00:49:44;1.25;;;1.15;;
72924;SDS011;61070;50.794;7.054;2023-01-08T00:52:09;2.92;;;1.30;;
72924;SDS011;61070;50.794;7.054;2023-01-08T00:54:36;1.73;;;1.63;;
72924;SDS011;61070;50.794;7.054;2023-01-08T00:57:01;4.47;;;1.77;;
72924;SDS011;61070;50.794;7.054;2023-01-08T00:59:26;2.22;;;1.48;;
72924;SDS011;61070;50.794;7.054;2023-01-08T01:01:52;5.32;;;1.52;;
72924;SDS011;61070;50.794;7.054;2023-01-08T01:04:18;5.90;;;1.88;;
72924;SDS011;61070;50.794;7.054;2023-01-08T01:06:43;2.67;;;2.10;;
72924;SDS011;61070;50.794;7.054;2023-01-08T01:09:09;4.95;;;1.60;;
72924;SDS011;61070;50.794;7.054;2023-01-08T01:11:35;3.03;;;1.50;;
72924;SDS011;61070;50.794;7.054;2023-01-08T01:14:00;5.57;;;1.30;;
72924;SDS011;61070;50.794;7.054;2023-01-08T01:16:25;5.93;;;2.03;;
72924;SDS011;61070;50.794;7.054;2023-01-08T01:18:51;2.75;;;1.38;;
72924;SDS011;61070;50.794;7.054;2023-01-08T01:21:26;2.40;;;1.48;;
72924;SDS011;61070;50.794;7.054;2023-01-08T01:23:58;3.95;;;1.80;;
72924;SDS011;61070;50.794;7.054;2023-01-08T01:26:25;6.45;;;1.83;;
72924;SDS011;61070;50.794;7.054;2023-01-08T01:28:52;4.72;;;1.77;;
72924;SDS011;61070;50.794;7.054;2023-01-08T01:31:19;3.65;;;1.80;;
72924;SDS011;61070;50.794;7.054;2023-01-08T01:33:46;3.88;;;1.90;;
72924;SDS011;61070;50.794;7.054;2023-01-08T01:36:12;4.55;;;1.67;;
72924;SDS011;61070;50.794;7.054;2023-01-08T01:38:41;2.95;;;1.75;;
72924;SDS011;61070;50.794;7.054;2023-01-08T01:41:16;5.25;;;2.28;;
72924;SDS011;61070;50.794;7.054;2023-01-08T01:43:51;6.38;;;1.92;;
72924;SDS011;61070;50.794;7.054;2023-01-08T01:49:10;6.90;;;1.55;;
72924;SDS011;61070;50.794;7.054;2023-01-08T01:51:40;3.58;;;1.73;;
72924;SDS011;61070;50.794;7.054;2023-01-08T01:54:11;3.42;;;1.85;;
72924;SDS011;61070;50.794;7.054;2023-01-08T01:56:37;2.67;;;1.65;;
72924;SDS011;61070;50.794;7.054;2023-01-08T01:59:03;5.80;;;2.05;;
72924;SDS011;61070;50.794;7.054;2023-01-08T02:01:28;6.18;;;1.80;;
72924;SDS011;61070;50.794;7.054;2023-01-08T02:03:55;3.53;;;1.90;;
72924;SDS011;61070;50.794;7.054;2023-01-08T02:26:04;1.92;;;1.50;;
72924;SDS011;61070;50.794;7.054;2023-01-08T02:28:32;5.03;;;1.75;;
72924;SDS011;61070;50.794;7.054;2023-01-08T02:31:04;3.65;;;1.60;;
72924;SDS011;61070;50.794;7.054;2023-01-08T02:33:30;2.97;;;1.75;;
72924;SDS011;61070;50.794;7.054;2023-01-08T02:44:12;2.67;;;1.65;;
72924;SDS011;61070;50.794;7.054;2023-01-08T02:46:44;6.80;;;1.70;;
72924;SDS011;61070;50.794;7.054;2023-01-08T02:49:11;2.30;;;1.45;;
72924;SDS011;61070;50.794;7.054;2023-01-08T02:51:44;3.28;;;1.48;;
72924;SDS011;61070;50.794;7.054;2023-01-08T02:54:15;4.43;;;1.63;;
72924;SDS011;61070;50.794;7.054;2023-01-08T02:56:45;3.90;;;1.60;;
72924;SDS011;61070;50.794;7.054;2023-01-08T02:59:13;3.13;;;1.70;;
72924;SDS011;61070;50.794;7.054;2023-01-08T03:01:40;2.35;;;1.67;;
72924;SDS011;61070;50.794;7.054;2023-01-08T03:04:07;5.57;;;1.50;;
72924;SDS011;61070;50.794;7.054;2023-01-08T03:06:37;2.47;;;1.65;;
72924;SDS011;61070;50.794;7.054;2023-01-08T03:09:02;3.08;;;1.98;;
72924;SDS011;61070;50.794;7.054;2023-01-08T03:11:30;3.33;;;1.95;;
72924;SDS011;61070;50.794;7.054;2023-01-08T03:14:09;5.38;;;2.83;;
72924;SDS011;61070;50.794;7.054;2023-01-08T03:16:44;2.50;;;1.70;;
72924;SDS011;61070;50.794;7.054;2023-01-08T03:21:46;4.00;;;2.17;;
72924;SDS011;61070;50.794;7.054;2023-01-08T03:24:14;4.22;;;2.25;;
72924;SDS011;61070;50.794;7.054;2023-01-08T03:26:42;3.50;;;2.42;;
72924;SDS011;61070;50.794;7.054;2023-01-08T03:29:10;3.72;;;2.30;;
72924;SDS011;61070;50.794;7.054;2023-01-08T03:31:38;7.30;;;2.90;;
72924;SDS011;61070;50.794;7.054;2023-01-08T03:34:04;4.50;;;2.55;;
72924;SDS011;61070;50.794;7.054;2023-01-08T03:36:31;5.38;;;2.38;;
72924;SDS011;61070;50.794;7.054;2023-01-08T03:38:58;4.45;;;2.40;;
72924;SDS011;61070;50.794;7.054;2023-01-08T03:41:30;3.28;;;1.90;;
72924;SDS011;61070;50.794;7.054;2023-01-08T03:43:58;2.83;;;1.10;;
72924;SDS011;61070;50.794;7.054;2023-01-08T03:46:28;1.23;;;1.00;;
72924;SDS011;61070;50.794;7.054;2023-01-08T03:48:57;3.63;;;1.30;;
72924;SDS011;61070;50.794;7.054;2023-01-08T03:51:24;1.13;;;1.00;;
72924;SDS011;61070;50.794;7.054;2023-01-08T03:53:49;3.03;;;0.80;;
72924;SDS011;61070;50.794;7.054;2023-01-08T03:56:18;0.98;;;0.73;;
72924;SDS011;61070;50.794;7.054;2023-01-08T03:58:43;1.00;;;0.80;;
72924;SDS011;61070;50.794;7.054;2023-01-08T04:01:09;2.10;;;0.80;;
72924;SDS011;61070;50.794;7.054;2023-01-08T04:03:34;2.17;;;0.52;;
72924;SDS011;61070;50.794;7.054;2023-01-08T04:05:59;2.47;;;0.73;;
72924;SDS011;61070;50.794;7.054;2023-01-08T04:08:25;0.60;;;0.60;;
72924;SDS011;61070;50.794;7.054;2023-01-08T04:10:50;0.80;;;0.70;;
72924;SDS011;61070;50.794;7.054;2023-01-08T04:13:15;0.95;;;0.65;;
72924;SDS011;61070;50.794;7.054;2023-01-08T04:15:45;0.80;;;0.60;;
72924;SDS011;61070;50.794;7.054;2023-01-08T04:18:12;2.28;;;0.50;;
72924;SDS011;61070;50.794;7.054;2023-01-08T04:20:37;5.28;;;0.55;;
72924;SDS011;61070;50.794;7.054;2023-01-08T04:23:02;0.80;;;0.50;;
72924;SDS011;61070;50.794;7.054;2023-01-08T04:25:28;1.17;;;0.55;;
72924;SDS011;61070;50.794;7.054;2023-01-08T04:27:53;0.80;;;0.43;;
72924;SDS011;61070;50.794;7.054;2023-01-08T04:30:18;1.55;;;0.73;;
72924;SDS011;61070;50.794;7.054;2023-01-08T04:32:43;0.80;;;0.60;;
72924;SDS011;61070;50.794;7.054;2023-01-08T04:35:09;0.63;;;0.50;;
72924;SDS011;61070;50.794;7.054;2023-01-08T04:37:34;1.10;;;0.50;;
72924;SDS011;61070;50.794;7.054;2023-01-08T04:39:59;0.50;;;0.40;;
72924;SDS011;61070;50.794;7.054;2023-01-08T04:42:25;1.33;;;0.60;;
72924;SDS011;61070;50.794;7.054;2023-01-08T04:44:50;1.73;;;0.68;;
72924;SDS011;61070;50.794;7.054;2023-01-08T04:47:15;0.63;;;0.35;;
72924;SDS011;61070;50.794;7.054;2023-01-08T04:49:40;1.35;;;0.50;;
72924;SDS011;61070;50.794;7.054;2023-01-08T04:52:06;0.98;;;0.38;;
72924;SDS011;61070;50.794;7.054;2023-01-08T04:54:31;0.50;;;0.40;;
72924;SDS011;61070;50.794;7.054;2023-01-08T04:56:56;0.60;;;0.57;;
72924;SDS011;61070;50.794;7.054;2023-01-08T04:59:21;2.00;;;0.40;;
72924;SDS011;61070;50.794;7.054;2023-01-08T05:01:47;0.68;;;0.40;;
72924;SDS011;61070;50.794;7.054;2023-01-08T05:04:12;1.02;;;0.50;;
72924;SDS011;61070;50.794;7.054;2023-01-08T05:06:37;0.50;;;0.50;;
72924;SDS011;61070;50.794;7.054;2023-01-08T05:09:03;3.00;;;0.45;;
72924;SDS011;61070;50.794;7.054;2023-01-08T05:11:28;0.60;;;0.43;;
72924;SDS011;61070;50.794;7.054;2023-01-08T05:13:53;0.57;;;0.30;;
72924;SDS011;61070;50.794;7.054;2023-01-08T05:16:19;0.70;;;0.52;;
72924;SDS011;61070;50.794;7.054;2023-01-08T05:18:44;0.98;;;0.60;;
72924;SDS011;61070;50.794;7.054;2023-01-08T05:21:10;0.70;;;0.40;;
72924;SDS011;61070;50.794;7.054;2023-01-08T05:23:37;1.35;;;0.90;;
72924;SDS011;61070;50.794;7.054;2023-01-08T05:26:03;0.25;;;0.25;;
72924;SDS011;61070;50.794;7.054;2023-01-08T05:28:30;0.93;;;0.40;;
72924;SDS011;61070;50.794;7.054;2023-01-08T05:30:55;1.13;;;0.40;;
72924;SDS011;61070;50.794;7.054;2023-01-08T05:33:21;0.55;;;0.38;;
72924;SDS011;61070;50.794;7.054;2023-01-08T05:35:47;0.68;;;0.40;;
72924;SDS011;61070;50.794;7.054;2023-01-08T05:38:12;1.08;;;0.43;;
72924;SDS011;61070;50.794;7.054;2023-01-08T05:40:37;1.02;;;0.60;;
72924;SDS011;61070;50.794;7.054;2023-01-08T05:43:03;1.13;;;0.40;;
72924;SDS011;61070;50.794;7.054;2023-01-08T05:45:29;0.73;;;0.55;;
72924;SDS011;61070;50.794;7.054;2023-01-08T05:47:55;0.30;;;0.30;;
72924;SDS011;61070;50.794;7.054;2023-01-08T05:50:21;1.85;;;0.50;;
72924;SDS011;61070;50.794;7.054;2023-01-08T05:52:46;0.40;;;0.40;;
72924;SDS011;61070;50.794;7.054;2023-01-08T05:55:11;0.63;;;0.40;;
72924;SDS011;61070;50.794;7.054;2023-01-08T05:57:36;1.27;;;0.43;;
72924;SDS011;61070;50.794;7.054;2023-01-08T06:00:03;0.60;;;0.43;;
72924;SDS011;61070;50.794;7.054;2023-01-08T06:02:29;0.52;;;0.30;;
72924;SDS011;61070;50.794;7.054;2023-01-08T06:04:54;0.95;;;0.40;;
72924;SDS011;61070;50.794;7.054;2023-01-08T06:07:20;0.60;;;0.57;;
72924;SDS011;61070;50.794;7.054;2023-01-08T06:09:45;0.90;;;0.40;;
72924;SDS011;61070;50.794;7.054;2023-01-08T06:12:10;0.63;;;0.32;;
72924;SDS011;61070;50.794;7.054;2023-01-08T06:14:35;1.50;;;0.30;;
72924;SDS011;61070;50.794;7.054;2023-01-08T06:17:01;0.77;;;0.43;;
72924;SDS011;61070;50.794;7.054;2023-01-08T06:19:26;0.50;;;0.50;;
72924;SDS011;61070;50.794;7.054;2023-01-08T06:21:51;0.90;;;0.60;;
72924;SDS011;61070;50.794;7.054;2023-01-08T06:24:16;1.45;;;0.38;;
72924;SDS011;61070;50.794;7.054;2023-01-08T06:26:42;0.40;;;0.40;;
72924;SDS011;61070;50.794;7.054;2023-01-08T06:29:07;1.45;;;0.60;;
72924;SDS011;61070;50.794;7.054;2023-01-08T06:31:33;0.50;;;0.40;;
72924;SDS011;61070;50.794;7.054;2023-01-08T06:33:58;0.82;;;0.38;;
72924;SDS011;61070;50.794;7.054;2023-01-08T06:36:23;2.47;;;0.63;;
72924;SDS011;61070;50.794;7.054;2023-01-08T06:38:49;0.68;;;0.47;;
72924;SDS011;61070;50.794;7.054;2023-01-08T06:41:14;1.10;;;0.52;;
72924;SDS011;61070;50.794;7.054;2023-01-08T06:43:39;0.50;;;0.40;;
72924;SDS011;61070;50.794;7.054;2023-01-08T06:46:05;0.70;;;0.40;;
72924;SDS011;61070;50.794;7.054;2023-01-08T06:48:32;1.77;;;0.35;;
72924;SDS011;61070;50.794;7.054;2023-01-08T06:50:58;0.68;;;0.50;;
72924;SDS011;61070;50.794;7.054;2023-01-08T06:53:24;0.45;;;0.40;;
72924;SDS011;61070;50.794;7.054;2023-01-08T06:55:50;0.70;;;0.30;;
72924;SDS011;61070;50.794;7.054;2023-01-08T06:58:20;0.60;;;0.50;;
72924;SDS011;61070;50.794;7.054;2023-01-08T07:00:52;3.30;;;0.88;;
72924;SDS011;61070;50.794;7.054;2023-01-08T07:03:17;1.25;;;0.60;;
72924;SDS011;61070;50.794;7.054;2023-01-08T07:05:43;1.88;;;0.50;;
72924;SDS011;61070;50.794;7.054;2023-01-08T07:08:17;0.70;;;0.52;;
72924;SDS011;61070;50.794;7.054;2023-01-08T07:10:44;0.60;;;0.60;;
72924;SDS011;61070;50.794;7.054;2023-01-08T07:13:09;1.75;;;0.60;;
72924;SDS011;61070;50.794;7.054;2023-01-08T07:15:36;0.55;;;0.50;;
72924;SDS011;61070;50.794;7.054;2023-01-08T07:18:03;1.00;;;0.50;;
72924;SDS011;61070;50.794;7.054;2023-01-08T07:20:30;4.40;;;1.00;;
72924;SDS011;61070;50.794;7.054;2023-01-08T07:22:59;2.78;;;0.65;;
72924;SDS011;61070;50.794;7.054;2023-01-08T07:25:25;1.23;;;0.70;;
72924;SDS011;61070;50.794;7.054;2023-01-08T07:27:51;0.77;;;0.60;;
72924;SDS011;61070;50.794;7.054;2023-01-08T07:30:16;0.98;;;0.70;;
72924;SDS011;61070;50.794;7.054;2023-01-08T07:32:41;1.95;;;0.80;;
72924;SDS011;61070;50.794;7.054;2023-01-08T07:35:07;1.60;;;1.02;;
72924;SDS011;61070;50.794;7.054;2023-01-08T07:37:32;1.00;;;0.70;;
72924;SDS011;61070;50.794;7.054;2023-01-08T07:39:57;1.70;;;0.88;;
72924;SDS011;61070;50.794;7.054;2023-01-08T07:42:22;1.27;;;0.68;;
72924;SDS011;61070;50.794;7.054;2023-01-08T07:44:48;2.55;;;0.52;;
72924;SDS011;61070;50.794;7.054;2023-01-08T07:47:13;1.67;;;0.77;;
72924;SDS011;61070;50.794;7.054;2023-01-08T07:49:38;4.30;;;0.60;;
72924;SDS011;61070;50.794;7.054;2023-01-08T07:52:04;2.45;;;0.60;;
72924;SDS011;61070;50.794;7.054;2023-01-08T07:54:29;1.67;;;0.80;;
72924;SDS011;61070;50.794;7.054;2023-01-08T07:56:54;1.25;;;0.60;;
72924;SDS011;61070;50.794;7.054;2023-01-08T07:59:19;8.27;;;1.15;;
72924;SDS011;61070;50.794;7.054;2023-01-08T08:01:45;4.03;;;1.15;;
72924;SDS011;61070;50.794;7.054;2023-01-08T08:04:12;5.18;;;0.80;;
72924;SDS011;61070;50.794;7.054;2023-01-08T08:06:38;1.27;;;0.75;;
72924;SDS011;61070;50.794;7.054;2023-01-08T08:09:04;0.88;;;0.50;;
72924;SDS011;61070;50.794;7.054;2023-01-08T08:11:29;1.10;;;0.57;;
72924;SDS011;61070;50.794;7.054;2023-01-08T08:13:54;4.13;;;1.58;;
72924;SDS011;61070;50.794;7.054;2023-01-08T08:16:20;4.57;;;0.80;;
72924;SDS011;61070;50.794;7.054;2023-01-08T08:18:45;2.47;;;0.90;;
72924;SDS011;61070;50.794;7.054;2023-01-08T08:21:10;2.85;;;0.63;;
72924;SDS011;61070;50.794;7.054;2023-01-08T08:23:35;4.10;;;0.73;;
72924;SDS011;61070;50.794;7.054;2023-01-08T08:26:01;1.85;;;0.65;;
72924;SDS011;61070;50.794;7.054;2023-01-08T08:28:28;2.13;;;1.02;;
72924;SDS011;61070;50.794;7.054;2023-01-08T08:30:53;2.55;;;1.23;;
72924;SDS011;61070;50.794;7.054;2023-01-08T08:33:19;3.17;;;0.80;;
72924;SDS011;61070;50.794;7.054;2023-01-08T08:35:48;2.13;;;0.70;;
72924;SDS011;61070;50.794;7.054;2023-01-08T08:38:14;2.95;;;1.08;;
72924;SDS011;61070;50.794;7.054;2023-01-08T08:40:40;2.83;;;0.85;;
72924;SDS011;61070;50.794;7.054;2023-01-08T08:43:06;2.58;;;0.98;;
72924;SDS011;61070;50.794;7.054;2023-01-08T08:45:33;6.85;;;1.33;;
72924;SDS011;61070;50.794;7.054;2023-01-08T08:47:58;6.85;;;1.35;;
72924;SDS011;61070;50.794;7.054;2023-01-08T08:50:24;2.55;;;1.20;;
72924;SDS011;61070;50.794;7.054;2023-01-08T08:52:49;3.53;;;0.88;;
72924;SDS011;61070;50.794;7.054;2023-01-08T08:55:15;3.60;;;1.52;;
72924;SDS011;61070;50.794;7.054;2023-01-08T08:57:41;3.88;;;2.30;;
72924;SDS011;61070;50.794;7.054;2023-01-08T09:00:07;7.38;;;2.88;;
72924;SDS011;61070;50.794;7.054;2023-01-08T09:02:33;3.55;;;1.80;;
72924;SDS011;61070;50.794;7.054;2023-01-08T09:04:58;2.72;;;1.40;;
72924;SDS011;61070;50.794;7.054;2023-01-08T09:07:24;3.30;;;1.20;;
72924;SDS011;61070;50.794;7.054;2023-01-08T09:09:49;3.10;;;1.38;;
72924;SDS011;61070;50.794;7.054;2023-01-08T09:12:14;4.55;;;0.95;;
72924;SDS011;61070;50.794;7.054;2023-01-08T09:14:39;2.90;;;1.13;;
72924;SDS011;61070;50.794;7.054;2023-01-08T09:17:05;6.13;;;2.75;;
72924;SDS011;61070;50.794;7.054;2023-01-08T09:19:30;4.88;;;2.33;;
72924;SDS011;61070;50.794;7.054;2023-01-08T09:21:55;7.07;;;1.73;;
72924;SDS011;61070;50.794;7.054;2023-01-08T09:24:21;3.78;;;1.17;;
72924;SDS011;61070;50.794;7.054;2023-01-08T09:26:46;2.65;;;1.50;;
72924;SDS011;61070;50.794;7.054;2023-01-08T09:29:11;2.60;;;1.30;;
72924;SDS011;61070;50.794;7.054;2023-01-08T09:31:36;6.18;;;1.33;;
72924;SDS011;61070;50.794;7.054;2023-01-08T09:34:02;2.53;;;0.88;;
72924;SDS011;61070;50.794;7.054;2023-01-08T09:36:27;3.05;;;0.95;;
72924;SDS011;61070;50.794;7.054;2023-01-08T09:38:53;1.92;;;1.20;;
72924;SDS011;61070;50.794;7.054;2023-01-08T09:41:20;2.35;;;1.33;;
72924;SDS011;61070;50.794;7.054;2023-01-08T09:43:49;2.85;;;1.35;;
72924;SDS011;61070;50.794;7.054;2023-01-08T09:46:18;3.40;;;1.20;;
72924;SDS011;61070;50.794;7.054;2023-01-08T09:48:46;5.28;;;1.13;;
72924;SDS011;61070;50.794;7.054;2023-01-08T09:51:13;5.65;;;1.00;;
72924;SDS011;61070;50.794;7.054;2023-01-08T09:53:40;3.85;;;0.95;;
72924;SDS011;61070;50.794;7.054;2023-01-08T09:56:15;5.05;;;1.13;;
72924;SDS011;61070;50.794;7.054;2023-01-08T09:58:45;3.85;;;1.13;;
72924;SDS011;61070;50.794;7.054;2023-01-08T10:01:15;4.55;;;1.05;;
72924;SDS011;61070;50.794;7.054;2023-01-08T10:03:48;3.03;;;0.80;;
72924;SDS011;61070;50.794;7.054;2023-01-08T10:06:17;3.75;;;1.55;;
72924;SDS011;61070;50.794;7.054;2023-01-08T10:08:43;3.85;;;1.30;;
72924;SDS011;61070;50.794;7.054;2023-01-08T10:11:10;2.95;;;1.40;;
72924;SDS011;61070;50.794;7.054;2023-01-08T10:13:38;7.07;;;1.40;;
72924;SDS011;61070;50.794;7.054;2023-01-08T10:16:06;5.28;;;1.33;;
72924;SDS011;61070;50.794;7.054;2023-01-08T10:18:34;3.25;;;1.00;;
72924;SDS011;61070;50.794;7.054;2023-01-08T10:21:00;3.22;;;1.13;;
72924;SDS011;61070;50.794;7.054;2023-01-08T10:23:25;5.75;;;1.27;;
72924;SDS011;61070;50.794;7.054;2023-01-08T10:28:27;3.58;;;1.17;;
72924;SDS011;61070;50.794;7.054;2023-01-08T10:30:58;3.72;;;1.30;;
72924;SDS011;61070;50.794;7.054;2023-01-08T10:33:29;7.00;;;1.77;;
72924;SDS011;61070;50.794;7.054;2023-01-08T10:36:03;4.50;;;1.20;;
72924;SDS011;61070;50.794;7.054;2023-01-08T10:38:32;3.07;;;1.40;;
72924;SDS011;61070;50.794;7.054;2023-01-08T10:41:02;4.72;;;1.23;;
72924;SDS011;61070;50.794;7.054;2023-01-08T10:43:33;3.00;;;0.90;;
72924;SDS011;61070;50.794;7.054;2023-01-08T10:46:06;4.78;;;0.85;;
72924;SDS011;61070;50.794;7.054;2023-01-08T10:48:43;2.35;;;0.93;;
72924;SDS011;61070;50.794;7.054;2023-01-08T10:51:14;4.32;;;0.90;;
72924;SDS011;61070;50.794;7.054;2023-01-08T10:53:42;1.48;;;0.75;;
72924;SDS011;61070;50.794;7.054;2023-01-08T10:56:16;2.22;;;0.70;;
72924;SDS011;61070;50.794;7.054;2023-01-08T10:58:44;2.35;;;1.15;;
72924;SDS011;61070;50.794;7.054;2023-01-08T11:01:10;1.70;;;1.00;;
72924;SDS011;61070;50.794;7.054;2023-01-08T11:03:53;4.47;;;1.27;;
72924;SDS011;61070;50.794;7.054;2023-01-08T11:06:22;3.92;;;1.23;;
72924;SDS011;61070;50.794;7.054;2023-01-08T11:08:56;1.13;;;1.02;;
72924;SDS011;61070;50.794;7.054;2023-01-08T11:11:23;1.25;;;1.00;;
72924;SDS011;61070;50.794;7.054;2023-01-08T11:13:59;2.35;;;1.00;;
72924;SDS011;61070;50.794;7.054;2023-01-08T11:16:37;1.92;;;1.15;;
72924;SDS011;61070;50.794;7.054;2023-01-08T11:19:12;2.72;;;1.10;;
72924;SDS011;61070;50.794;7.054;2023-01-08T11:21:40;3.13;;;1.25;;
72924;SDS011;61070;50.794;7.054;2023-01-08T11:24:14;3.22;;;1.60;;
72924;SDS011;61070;50.794;7.054;2023-01-08T11:26:47;1.95;;;0.90;;
72924;SDS011;61070;50.794;7.054;2023-01-08T11:29:20;4.90;;;1.40;;
72924;SDS011;61070;50.794;7.054;2023-01-08T11:31:53;2.50;;;1.10;;
72924;SDS011;61070;50.794;7.054;2023-01-08T11:34:27;4.35;;;1.60;;
72924;SDS011;61070;50.794;7.054;2023-01-08T11:37:19;4.30;;;1.38;;
72924;SDS011;61070;50.794;7.054;2023-01-08T11:39:46;1.67;;;1.00;;
72924;SDS011;61070;50.794;7.054;2023-01-08T11:54:14;4.03;;;1.25;;
72924;SDS011;61070;50.794;7.054;2023-01-08T12:03:22;6.70;;;0.80;;
72924;SDS011;61070;50.794;7.054;2023-01-08T12:05:58;1.13;;;0.70;;
72924;SDS011;61070;50.794;7.054;2023-01-08T12:11:19;2.28;;;0.73;;
72924;SDS011;61070;50.794;7.054;2023-01-08T12:16:59;0.80;;;0.38;;
72924;SDS011;61070;50.794;7.054;2023-01-08T12:19:58;2.67;;;0.70;;
72924;SDS011;61070;50.794;7.054;2023-01-08T12:22:31;1.23;;;0.45;;
72924;SDS011;61070;50.794;7.054;2023-01-08T12:36:09;1.42;;;0.50;;
72924;SDS011;61070;50.794;7.054;2023-01-08T12:38:41;1.00;;;0.43;;
72924;SDS011;61070;50.794;7.054;2023-01-08T12:41:12;1.63;;;0.57;;
72924;SDS011;61070;50.794;7.054;2023-01-08T12:46:17;1.67;;;0.80;;
72924;SDS011;61070;50.794;7.054;2023-01-08T12:48:45;1.10;;;0.60;;
72924;SDS011;61070;50.794;7.054;2023-01-08T12:54:02;0.55;;;0.40;;
72924;SDS011;61070;50.794;7.054;2023-01-08T12:59:34;4.32;;;0.35;;
72924;SDS011;61070;50.794;7.054;2023-01-08T13:02:02;2.08;;;0.55;;
72924;SDS011;61070;50.794;7.054;2023-01-08T13:04:39;7.13;;;3.00;;
72924;SDS011;61070;50.794;7.054;2023-01-08T13:07:05;4.80;;;2.15;;
72924;SDS011;61070;50.794;7.054;2023-01-08T13:09:36;4.57;;;2.95;;
72924;SDS011;61070;50.794;7.054;2023-01-08T13:12:01;7.03;;;3.33;;
72924;SDS011;61070;50.794;7.054;2023-01-08T13:14:27;1.25;;;0.93;;
72924;SDS011;61070;50.794;7.054;2023-01-08T13:16:59;8.18;;;3.88;;
72924;SDS011;61070;50.794;7.054;2023-01-08T13:19:32;3.03;;;0.90;;
72924;SDS011;61070;50.794;7.054;2023-01-08T13:22:03;3.35;;;1.25;;
72924;SDS011;61070;50.794;7.054;2023-01-08T13:24:30;1.30;;;0.50;;
72924;SDS011;61070;50.794;7.054;2023-01-08T13:29:45;4.68;;;1.98;;
72924;SDS011;61070;50.794;7.054;2023-01-08T13:35:00;1.65;;;1.13;;
72924;SDS011;61070;50.794;7.054;2023-01-08T13:37:36;1.50;;;0.45;;
72924;SDS011;61070;50.794;7.054;2023-01-08T13:40:01;2.38;;;2.00;;
72924;SDS011;61070;50.794;7.054;2023-01-08T13:42:30;1.77;;;0.80;;
72924;SDS011;61070;50.794;7.054;2023-01-08T13:44:58;0.90;;;0.52;;
72924;SDS011;61070;50.794;7.054;2023-01-08T13:47:34;1.27;;;0.55;;
72924;SDS011;61070;50.794;7.054;2023-01-08T13:50:16;1.77;;;0.95;;
72924;SDS011;61070;50.794;7.054;2023-01-08T13:52:48;1.27;;;0.63;;
72924;SDS011;61070;50.794;7.054;2023-01-08T14:00:37;1.73;;;0.90;;
72924;SDS011;61070;50.794;7.054;2023-01-08T14:03:27;1.35;;;0.60;;
72924;SDS011;61070;50.794;7.054;2023-01-08T14:11:23;6.03;;;2.75;;
72924;SDS011;61070;50.794;7.054;2023-01-08T14:13:53;2.75;;;1.80;;
72924;SDS011;61070;50.794;7.054;2023-01-08T14:16:19;1.75;;;1.00;;
72924;SDS011;61070;50.794;7.054;2023-01-08T14:18:45;2.97;;;0.93;;
72924;SDS011;61070;50.794;7.054;2023-01-08T14:21:12;1.90;;;0.50;;
72924;SDS011;61070;50.794;7.054;2023-01-08T14:23:39;6.57;;;2.90;;
72924;SDS011;61070;50.794;7.054;2023-01-08T14:28:51;0.68;;;0.57;;
72924;SDS011;61070;50.794;7.054;2023-01-08T14:31:21;3.50;;;0.85;;
72924;SDS011;61070;50.794;7.054;2023-01-08T14:33:48;1.92;;;0.50;;
72924;SDS011;61070;50.794;7.054;2023-01-08T14:36:14;0.85;;;0.50;;
72924;SDS011;61070;50.794;7.054;2023-01-08T14:38:40;0.40;;;0.40;;
72924;SDS011;61070;50.794;7.054;2023-01-08T14:41:09;1.27;;;0.57;;
72924;SDS011;61070;50.794;7.054;2023-01-08T14:43:38;2.72;;;0.60;;
72924;SDS011;61070;50.794;7.054;2023-01-08T14:46:18;1.25;;;0.80;;
72924;SDS011;61070;50.794;7.054;2023-01-08T14:48:45;2.80;;;1.42;;
72924;SDS011;61070;50.794;7.054;2023-01-08T14:51:12;2.67;;;0.90;;
72924;SDS011;61070;50.794;7.054;2023-01-08T14:53:45;1.63;;;0.95;;
72924;SDS011;61070;50.794;7.054;2023-01-08T14:56:19;2.13;;;1.00;;
72924;SDS011;61070;50.794;7.054;2023-01-08T14:58:48;1.35;;;0.55;;
72924;SDS011;61070;50.794;7.054;2023-01-08T15:01:18;2.28;;;1.17;;
72924;SDS011;61070;50.794;7.054;2023-01-08T15:03:47;2.55;;;1.20;;
72924;SDS011;61070;50.794;7.054;2023-01-08T15:06:24;5.28;;;1.70;;
72924;SDS011;61070;50.794;7.054;2023-01-08T15:08:51;1.58;;;1.00;;
72924;SDS011;61070;50.794;7.054;2023-01-08T15:13:42;5.50;;;1.57;;
72924;SDS011;61070;50.794;7.054;2023-01-08T15:16:09;4.85;;;1.55;;
72924;SDS011;61070;50.794;7.054;2023-01-08T15:18:41;1.20;;;0.60;;
72924;SDS011;61070;50.794;7.054;2023-01-08T15:21:21;3.33;;;1.10;;
72924;SDS011;61070;50.794;7.054;2023-01-08T15:23:49;2.03;;;0.90;;
72924;SDS011;61070;50.794;7.054;2023-01-08T15:28:47;3.70;;;0.80;;
72924;SDS011;61070;50.794;7.054;2023-01-08T15:31:23;3.05;;;0.95;;
72924;SDS011;61070;50.794;7.054;2023-01-08T15:33:56;1.98;;;1.10;;
72924;SDS011;61070;50.794;7.054;2023-01-08T15:36:23;4.05;;;1.20;;
72924;SDS011;61070;50.794;7.054;2023-01-08T15:38:48;1.73;;;0.77;;
72924;SDS011;61070;50.794;7.054;2023-01-08T15:41:16;2.00;;;1.10;;
72924;SDS011;61070;50.794;7.054;2023-01-08T15:44:03;3.47;;;1.10;;
72924;SDS011;61070;50.794;7.054;2023-01-08T15:46:29;1.27;;;0.82;;
72924;SDS011;61070;50.794;7.054;2023-01-08T15:48:54;1.70;;;1.30;;
72924;SDS011;61070;50.794;7.054;2023-01-08T15:51:19;5.40;;;2.38;;
72924;SDS011;61070;50.794;7.054;2023-01-08T15:53:44;4.95;;;2.83;;
72924;SDS011;61070;50.794;7.054;2023-01-08T15:56:10;2.20;;;1.20;;
72924;SDS011;61070;50.794;7.054;2023-01-08T15:58:35;4.63;;;1.38;;
72924;SDS011;61070;50.794;7.054;2023-01-08T16:01:00;1.75;;;0.93;;
72924;SDS011;61070;50.794;7.054;2023-01-08T16:03:25;3.22;;;1.30;;
72924;SDS011;61070;50.794;7.054;2023-01-08T16:05:51;1.60;;;1.00;;
72924;SDS011;61070;50.794;7.054;2023-01-08T16:08:16;3.75;;;0.88;;
72924;SDS011;61070;50.794;7.054;2023-01-08T16:10:42;4.18;;;1.25;;
72924;SDS011;61070;50.794;7.054;2023-01-08T16:13:07;2.45;;;1.25;;
72924;SDS011;61070;50.794;7.054;2023-01-08T16:15:32;2.83;;;1.27;;
72924;SDS011;61070;50.794;7.054;2023-01-08T16:17:57;3.85;;;1.38;;
72924;SDS011;61070;50.794;7.054;2023-01-08T16:20:23;2.55;;;1.48;;
72924;SDS011;61070;50.794;7.054;2023-01-08T16:22:49;8.07;;;1.80;;
72924;SDS011;61070;50.794;7.054;2023-01-08T16:25:14;8.32;;;1.70;;
72924;SDS011;61070;50.794;7.054;2023-01-08T16:27:39;2.65;;;1.50;;
72924;SDS011;61070;50.794;7.054;2023-01-08T16:30:07;6.60;;;2.03;;
72924;SDS011;61070;50.794;7.054;2023-01-08T16:32:38;3.95;;;1.77;;
72924;SDS011;61070;50.794;7.054;2023-01-08T16:35:03;2.42;;;1.60;;